Time;durP1;ratioP1;P1;durP2;ratioP2;P2;SDS_P1;SDS_P2;PMS_P1;PMS_P2;Temp;Humidity;BMP_temperature;BMP_pressure;BME280_temperature;BME280_humidity;BME280_pressure;Samples;Min_cycle;Max_cycle;Signal;HPM_P1;HPM_P2
2023/09/16 00:03:38;;;;;;;10.75;8.55;;;15.50;1.00;;;;;;20676211;28;20053;-42
2023/09/16 00:13:41;;;;;;;11.67;8.30;;;15.40;1.00;;;;;;20677590;28;20268;-42
2023/09/16 00:23:42;;;;;;;11.25;8.90;;;15.20;1.00;;;;;;20675754;28;20391;-42
2023/09/16 00:33:42;;;;;;;15.05;9.18;;;15.10;1.00;;;;;;20674997;28;20128;-42
2023/09/16 00:43:43;;;;;;;10.00;8.57;;;15.00;4.10;;;;;;20675114;28;20038;-42
2023/09/16 00:53:45;;;;;;;13.32;8.68;;;14.90;10.20;;;;;;20674350;28;20042;-42
2023/09/16 01:03:45;;;;;;;11.77;8.48;;;14.90;10.10;;;;;;20674472;28;20912;-42
2023/09/16 01:13:47;;;;;;;11.20;8.65;;;14.80;8.80;;;;;;20672719;28;20410;-42
2023/09/16 01:23:47;;;;;;;12.77;8.30;;;14.70;15.20;;;;;;20673183;28;20042;-42
2023/09/16 01:33:51;;;;;;;10.87;7.73;;;14.60;17.30;;;;;;20668847;28;20100;-42
2023/09/16 01:43:52;;;;;;;11.23;9.23;;;14.40;24.80;;;;;;20668791;28;20039;-42
2023/09/16 01:53:54;;;;;;;12.40;9.07;;;14.50;30.10;;;;;;20671382;28;20124;-42
2023/09/16 02:03:55;;;;;;;10.77;8.88;;;14.50;28.20;;;;;;20666519;28;20046;-42
2023/09/16 02:13:56;;;;;;;13.30;9.48;;;14.50;27.80;;;;;;20665925;28;20050;-42
2023/09/16 02:23:57;;;;;;;11.35;9.18;;;14.40;25.80;;;;;;20664246;28;20034;-42
2023/09/16 02:33:59;;;;;;;13.20;9.57;;;14.40;26.90;;;;;;20665841;28;20049;-42
2023/09/16 02:43:59;;;;;;;12.65;9.27;;;14.30;25.10;;;;;;20666650;28;20061;-42
2023/09/16 02:54:01;;;;;;;13.70;9.32;;;14.30;31.00;;;;;;20666631;28;20042;-42
2023/09/16 03:04:01;;;;;;;14.00;10.50;;;14.10;38.90;;;;;;20664668;28;20048;-42
2023/09/16 03:14:02;;;;;;;12.80;9.80;;;14.10;49.80;;;;;;20666030;28;20054;-42
2023/09/16 03:24:03;;;;;;;13.63;10.23;;;14.00;56.00;;;;;;20665433;28;20483;-42
2023/09/16 03:34:04;;;;;;;14.38;11.05;;;14.00;63.40;;;;;;20663760;28;20042;-42
2023/09/16 03:44:04;;;;;;;13.25;10.27;;;13.90;64.10;;;;;;20663163;28;20060;-42
2023/09/16 03:54:06;;;;;;;13.30;10.27;;;13.80;70.70;;;;;;20663022;28;20042;-42
2023/09/16 04:04:08;;;;;;;15.48;11.95;;;13.80;68.10;;;;;;20662439;28;20061;-42
2023/09/16 04:14:08;;;;;;;13.80;11.45;;;13.70;66.70;;;;;;20676338;28;20046;-41
2023/09/16 04:24:11;;;;;;;13.90;11.55;;;13.70;74.50;;;;;;20677378;28;20041;-42
2023/09/16 04:34:12;;;;;;;14.70;12.10;;;13.70;76.20;;;;;;20675281;28;20961;-42
2023/09/16 04:44:13;;;;;;;14.50;12.38;;;13.60;86.30;;;;;;20674282;28;20376;-42
2023/09/16 04:54:14;;;;;;;15.95;12.20;;;13.60;87.40;;;;;;20673628;28;20586;-42
2023/09/16 05:04:14;;;;;;;14.63;11.47;;;13.50;88.80;;;;;;20674219;28;20046;-42
2023/09/16 05:14:15;;;;;;;15.93;12.30;;;13.40;84.00;;;;;;20671793;28;20047;-42
2023/09/16 05:24:16;;;;;;;14.15;11.65;;;13.50;89.20;;;;;;20672111;28;20492;-41
2023/09/16 05:34:16;;;;;;;15.50;11.43;;;13.50;91.00;;;;;;20672479;28;20054;-42
2023/09/16 05:44:21;;;;;;;16.83;12.65;;;13.50;92.70;;;;;;20669484;28;20452;-42
2023/09/16 05:54:22;;;;;;;15.68;12.52;;;13.50;98.00;;;;;;20667582;28;20054;-42
2023/09/16 06:04:22;;;;;;;16.30;12.55;;;13.50;99.90;;;;;;20669658;28;20513;-42
2023/09/16 06:14:23;;;;;;;15.40;12.57;;;13.70;99.90;;;;;;20668185;28;20045;-42
2023/09/16 06:24:24;;;;;;;18.57;14.20;;;13.80;99.90;;;;;;20668358;28;20108;-42
2023/09/16 06:34:25;;;;;;;17.48;12.73;;;14.00;99.90;;;;;;20667717;28;20452;-41
2023/09/16 06:44:25;;;;;;;16.70;13.00;;;14.20;99.90;;;;;;20665265;28;20563;-42
2023/09/16 06:54:26;;;;;;;16.17;11.63;;;14.40;99.90;;;;;;20665399;28;20572;-42
2023/09/16 07:04:27;;;;;;;13.68;11.40;;;14.50;99.90;;;;;;20666732;28;20038;-42
2023/09/16 07:14:27;;;;;;;16.92;13.07;;;14.70;99.90;;;;;;20662096;28;20038;-42
2023/09/16 07:24:28;;;;;;;18.83;13.60;;;14.80;98.90;;;;;;20666136;28;20082;-42
2023/09/16 07:34:29;;;;;;;18.45;13.50;;;15.00;91.70;;;;;;20664284;28;20046;-42
2023/09/16 07:44:29;;;;;;;16.77;13.70;;;15.30;80.20;;;;;;20671394;28;20052;-42
2023/09/16 07:54:30;;;;;;;13.25;11.10;;;15.60;63.90;;;;;;20677236;28;20417;-42
2023/09/16 08:04:31;;;;;;;17.90;13.98;;;15.80;53.60;;;;;;20680585;28;20044;-42
2023/09/16 08:14:32;;;;;;;18.17;12.63;;;16.10;50.40;;;;;;20677194;28;20038;-42
2023/09/16 08:24:34;;;;;;;16.77;13.67;;;16.60;40.60;;;;;;20677308;28;20072;-42
2023/09/16 08:34:34;;;;;;;19.05;13.68;;;17.00;26.40;;;;;;20676414;28;20052;-42
2023/09/16 08:44:38;;;;;;;15.73;11.55;;;17.50;11.80;;;;;;20673020;28;20392;-42
2023/09/16 08:54:43;;;;;;;13.40;10.85;;;18.00;1.00;;;;;;20673955;28;20399;-42
2023/09/16 09:04:43;;;;;;;10.15;8.55;;;18.80;1.00;;;;;;20675450;28;20414;-42
2023/09/16 09:14:45;;;;;;;10.83;8.43;;;19.30;1.00;;;;;;20671616;28;20402;-42
2023/09/16 09:24:46;;;;;;;12.75;9.45;;;19.60;1.00;;;;;;20671105;28;20080;-42
2023/09/16 09:34:47;;;;;;;10.75;8.98;;;19.70;1.00;;;;;;20672288;28;20046;-42
2023/09/16 09:44:59;;;;;;;10.57;8.45;;;19.90;1.00;;;;;;20669801;28;20058;-42
2023/09/16 09:55:00;;;;;;;9.20;7.10;;;20.40;1.00;;;;;;20671256;28;20038;-42
2023/09/16 10:05:02;;;;;;;9.50;6.65;;;20.80;1.00;;;;;;20668590;28;20153;-42
2023/09/16 10:15:07;;;;;;;8.18;6.43;;;21.10;1.00;;;;;;20668982;28;20037;-42
2023/09/16 10:25:09;;;;;;;6.28;4.72;;;21.40;1.00;;;;;;20667366;28;20104;-42
2023/09/16 10:35:10;;;;;;;9.85;6.43;;;21.80;1.00;;;;;;20666708;28;20044;-42
2023/09/16 10:45:14;;;;;;;6.10;4.57;;;21.90;1.00;;;;;;20661275;28;20052;-42
2023/09/16 10:55:40;;;;;;;4.72;3.10;;;22.20;1.00;;;;;;20664515;28;20494;-42
2023/09/16 11:05:41;;;;;;;6.25;2.90;;;22.60;1.00;;;;;;20646012;28;20099;-42
2023/09/16 11:15:42;;;;;;;3.83;2.10;;;22.90;1.00;;;;;;20668422;28;20045;-42
2023/09/16 11:25:43;;;;;;;3.67;2.60;;;23.50;1.00;;;;;;20679949;28;20490;-42
2023/09/16 11:35:45;;;;;;;3.50;2.53;;;24.10;1.00;;;;;;20680568;28;20043;-42
2023/09/16 11:45:46;;;;;;;3.28;2.60;;;24.60;1.00;;;;;;20680086;28;20339;-43
2023/09/16 11:55:46;;;;;;;3.90;2.00;;;25.00;1.00;;;;;;20677883;28;20045;-42
2023/09/16 12:05:48;;;;;;;4.28;2.63;;;25.10;1.00;;;;;;20677666;28;20494;-42
2023/09/16 12:15:48;;;;;;;4.22;2.67;;;24.90;1.00;;;;;;20677080;28;20038;-43
2023/09/16 12:25:49;;;;;;;3.92;2.60;;;25.00;1.00;;;;;;20674732;28;20494;-42
2023/09/16 12:35:52;;;;;;;4.95;2.90;;;25.10;1.00;;;;;;20676138;28;20533;-43
2023/09/16 12:45:53;;;;;;;3.33;1.90;;;25.10;1.00;;;;;;20673070;28;20411;-42
2023/09/16 12:55:54;;;;;;;3.45;2.08;;;25.20;1.00;;;;;;20673792;28;20115;-42
2023/09/16 13:05:59;;;;;;;4.15;2.38;;;25.60;1.00;;;;;;20675892;28;20042;-42
2023/09/16 13:15:59;;;;;;;3.97;2.38;;;25.20;1.00;;;;;;20672505;28;20047;-43
2023/09/16 13:26:13;;;;;;;3.60;2.42;;;25.20;1.00;;;;;;20673688;28;20049;-43
2023/09/16 13:36:14;;;;;;;3.40;2.30;;;25.10;1.00;;;;;;20669490;28;20488;-42
2023/09/16 13:46:15;;;;;;;3.60;2.43;;;24.90;1.00;;;;;;20671420;28;20106;-43
2023/09/16 13:56:16;;;;;;;2.80;2.30;;;24.80;1.00;;;;;;20668499;28;20318;-42
2023/09/16 14:06:16;;;;;;;4.80;2.70;;;24.90;1.00;;;;;;20668727;28;20042;-42
2023/09/16 14:16:17;;;;;;;4.05;2.50;;;24.70;1.00;;;;;;20669669;28;20058;-43
2023/09/16 14:26:18;;;;;;;3.33;2.40;;;24.60;1.00;;;;;;20668142;28;20041;-42
2023/09/16 14:36:19;;;;;;;5.00;2.78;;;24.60;1.00;;;;;;20667605;28;20039;-42
2023/09/16 14:46:19;;;;;;;3.17;2.13;;;24.40;1.00;;;;;;20665871;28;20557;-42
2023/09/16 14:56:20;;;;;;;3.92;2.40;;;24.20;1.00;;;;;;20664115;28;20042;-43
2023/09/16 15:06:20;;;;;;;5.20;2.50;;;23.90;1.00;;;;;;20665775;28;20046;-42
2023/09/16 15:16:30;;;;;;;3.27;2.33;;;23.80;1.00;;;;;;20663896;28;20050;-42
2023/09/16 15:26:30;;;;;;;3.53;2.30;;;23.60;1.00;;;;;;20664625;28;20038;-42
2023/09/16 15:36:31;;;;;;;2.92;2.20;;;23.50;1.00;;;;;;20663505;28;20065;-42
2023/09/16 15:46:32;;;;;;;4.07;2.75;;;23.60;1.00;;;;;;20663786;28;20342;-42
2023/09/16 15:56:32;;;;;;;3.83;2.53;;;23.50;1.00;;;;;;20661694;28;20050;-42
2023/09/16 16:06:33;;;;;;;4.83;3.23;;;23.40;1.00;;;;;;20673343;28;20470;-43
2023/09/16 16:16:33;;;;;;;3.28;2.60;;;23.30;1.00;;;;;;20677761;28;20501;-43
2023/09/16 16:26:36;;;;;;;4.63;2.83;;;23.20;1.00;;;;;;20677350;28;20038;-43
2023/09/16 16:36:37;;;;;;;4.63;2.80;;;23.00;1.00;;;;;;20675891;28;20848;-43
2023/09/16 16:46:38;;;;;;;4.18;3.00;;;23.10;1.00;;;;;;20674365;28;20046;-42
2023/09/16 16:56:38;;;;;;;4.63;2.80;;;22.90;1.00;;;;;;20672987;28;20057;-43
2023/09/16 17:06:39;;;;;;;4.50;2.88;;;22.70;1.00;;;;;;20673286;28;20427;-43
2023/09/16 17:16:43;;;;;;;4.45;3.28;;;22.50;1.00;;;;;;20673560;28;20173;-43
2023/09/16 17:26:43;;;;;;;7.38;4.68;;;22.30;1.00;;;;;;20672322;28;20045;-42
2023/09/16 17:36:44;;;;;;;5.57;4.63;;;22.10;1.00;;;;;;20671383;28;20042;-42
2023/09/16 17:46:45;;;;;;;5.72;4.00;;;21.90;1.00;;;;;;20670346;28;20042;-43
2023/09/16 17:56:45;;;;;;;4.65;4.00;;;21.70;1.00;;;;;;20668277;28;20520;-43
2023/09/16 18:06:46;;;;;;;5.47;3.70;;;21.40;1.00;;;;;;20669537;28;20099;-42
2023/09/16 18:16:47;;;;;;;5.82;4.28;;;21.30;1.00;;;;;;20668068;28;20461;-43
2023/09/16 18:26:47;;;;;;;6.03;4.30;;;21.10;1.00;;;;;;20668047;28;20042;-43
2023/09/16 18:36:48;;;;;;;7.65;3.90;;;20.90;1.00;;;;;;20667016;28;20053;-42
2023/09/16 18:46:53;;;;;;;7.65;4.78;;;20.80;1.00;;;;;;20666603;28;20050;-43
2023/09/16 18:56:53;;;;;;;6.05;4.93;;;20.60;1.00;;;;;;20663097;28;20045;-42
2023/09/16 19:06:54;;;;;;;9.10;7.00;;;20.60;1.00;;;;;;20664709;28;20064;-42
2023/09/16 19:16:54;;;;;;;9.25;6.50;;;20.60;1.00;;;;;;20665204;28;20521;-43
2023/09/16 19:26:55;;;;;;;9.45;7.47;;;20.60;1.00;;;;;;20664117;28;20046;-43
2023/09/16 19:36:57;;;;;;;10.25;7.05;;;20.60;1.00;;;;;;20667971;28;20065;-42
2023/09/16 19:46:57;;;;;;;8.93;6.72;;;20.60;1.00;;;;;;20679120;28;20087;-42
2023/09/16 19:56:58;;;;;;;8.55;6.22;;;20.60;1.00;;;;;;20678203;28;20067;-43
2023/09/16 20:06:59;;;;;;;7.95;6.70;;;20.50;1.00;;;;;;20676981;28;20040;-43
2023/09/16 20:17:00;;;;;;;12.80;8.45;;;20.40;1.00;;;;;;20678618;28;20037;-42
2023/09/16 20:27:01;;;;;;;9.88;6.88;;;20.40;1.00;;;;;;20677984;28;20034;-42
2023/09/16 20:37:02;;;;;;;8.80;6.63;;;20.40;1.00;;;;;;20677029;28;21051;-42
2023/09/16 20:47:03;;;;;;;9.25;6.22;;;20.30;1.00;;;;;;20676539;28;20125;-43
2023/09/16 20:57:04;;;;;;;9.23;7.45;;;20.30;1.00;;;;;;20672987;28;20054;-42
2023/09/16 21:07:04;;;;;;;8.52;7.13;;;20.40;1.00;;;;;;20673457;28;20153;-43
2023/09/16 21:17:05;;;;;;;12.00;9.13;;;20.40;1.00;;;;;;20673437;28;20050;-43
2023/09/16 21:27:06;;;;;;;11.27;8.50;;;20.20;1.00;;;;;;20672580;28;20038;-43
2023/09/16 21:37:07;;;;;;;11.85;9.70;;;19.80;1.00;;;;;;20671325;28;20046;-43
2023/09/16 21:47:07;;;;;;;10.65;9.45;;;19.50;1.00;;;;;;20669745;28;20100;-43
2023/09/16 21:57:08;;;;;;;12.20;10.90;;;19.30;1.00;;;;;;20669510;28;20049;-43
2023/09/16 22:07:08;;;;;;;10.68;9.07;;;19.20;1.00;;;;;;20669893;28;20050;-43
2023/09/16 22:17:09;;;;;;;11.65;9.82;;;19.10;1.00;;;;;;20668261;28;20482;-43
2023/09/16 22:27:09;;;;;;;11.10;9.93;;;19.00;1.00;;;;;;20669739;28;20397;-43
2023/09/16 22:37:10;;;;;;;14.27;11.80;;;18.90;1.00;;;;;;20668568;28;20068;-42
2023/09/16 22:47:10;;;;;;;14.23;11.85;;;18.80;1.00;;;;;;20662822;28;20034;-42
2023/09/16 22:57:12;;;;;;;14.07;12.57;;;18.70;1.00;;;;;;20663491;28;20053;-43
2023/09/16 23:07:13;;;;;;;13.57;12.18;;;18.70;1.00;;;;;;20666694;28;20157;-43
2023/09/16 23:17:14;;;;;;;11.98;10.68;;;18.60;1.00;;;;;;20662538;28;20632;-43
2023/09/16 23:27:15;;;;;;;12.90;11.27;;;18.50;1.00;;;;;;20664280;28;20044;-42
2023/09/16 23:37:15;;;;;;;12.50;11.20;;;18.40;1.00;;;;;;20664904;28;20494;-42
2023/09/16 23:47:16;;;;;;;13.95;12.07;;;18.50;1.00;;;;;;20661352;28;20445;-42
2023/09/16 23:57:16;;;;;;;12.30;11.00;;;18.40;1.00;;;;;;20662001;28;20493;-42
